sensor_id;sensor_type;location;lat;lon;timestamp;P1;durP1;ratioP1;P2;durP2;ratioP2
26478;SDS011;14163;-26.142;27.992;2024-03-02T00:01:57;17.90;;;16.00;;
26478;SDS011;14163;-26.142;27.992;2024-03-02T00:04:26;17.97;;;16.27;;
26478;SDS011;14163;-26.142;27.992;2024-03-02T00:06:56;19.27;;;17.27;;
26478;SDS011;14163;-26.142;27.992;2024-03-02T00:09:25;23.00;;;16.93;;
26478;SDS011;14163;-26.142;27.992;2024-03-02T00:11:54;19.20;;;17.20;;
26478;SDS011;14163;-26.142;27.992;2024-03-02T00:14:25;18.10;;;16.20;;
26478;SDS011;14163;-26.142;27.992;2024-03-02T00:16:57;18.30;;;16.00;;
26478;SDS011;14163;-26.142;27.992;2024-03-02T00:19:27;18.20;;;15.57;;
26478;SDS011;14163;-26.142;27.992;2024-03-02T00:21:57;17.47;;;14.73;;
26478;SDS011;14163;-26.142;27.992;2024-03-02T00:24:31;18.27;;;15.07;;
26478;SDS011;14163;-26.142;27.992;2024-03-02T00:27:02;16.60;;;14.77;;
26478;SDS011;14163;-26.142;27.992;2024-03-02T00:29:34;16.10;;;14.20;;
26478;SDS011;14163;-26.142;27.992;2024-03-02T00:32:04;15.83;;;13.17;;
26478;SDS011;14163;-26.142;27.992;2024-03-02T00:34:40;18.40;;;13.10;;
26478;SDS011;14163;-26.142;27.992;2024-03-02T00:37:09;14.57;;;12.90;;
26478;SDS011;14163;-26.142;27.992;2024-03-02T00:39:39;14.43;;;12.27;;
26478;SDS011;14163;-26.142;27.992;2024-03-02T00:42:09;14.20;;;12.80;;
26478;SDS011;14163;-26.142;27.992;2024-03-02T00:44:41;14.30;;;11.97;;
26478;SDS011;14163;-26.142;27.992;2024-03-02T00:47:10;14.97;;;13.43;;
26478;SDS011;14163;-26.142;27.992;2024-03-02T00:49:39;14.20;;;12.73;;
26478;SDS011;14163;-26.142;27.992;2024-03-02T00:52:09;17.33;;;12.53;;
26478;SDS011;14163;-26.142;27.992;2024-03-02T00:54:39;13.40;;;12.00;;
26478;SDS011;14163;-26.142;27.992;2024-03-02T00:57:10;14.70;;;12.73;;
26478;SDS011;14163;-26.142;27.992;2024-03-02T00:59:41;13.07;;;11.23;;
26478;SDS011;14163;-26.142;27.992;2024-03-02T01:02:12;13.80;;;11.43;;
26478;SDS011;14163;-26.142;27.992;2024-03-02T01:04:41;15.73;;;10.40;;
26478;SDS011;14163;-26.142;27.992;2024-03-02T01:07:10;13.07;;;11.20;;
26478;SDS011;14163;-26.142;27.992;2024-03-02T01:09:39;18.40;;;12.30;;
26478;SDS011;14163;-26.142;27.992;2024-03-02T01:12:08;14.53;;;11.93;;
26478;SDS011;14163;-26.142;27.992;2024-03-02T01:14:37;12.83;;;11.53;;
26478;SDS011;14163;-26.142;27.992;2024-03-02T01:17:08;12.63;;;11.37;;
26478;SDS011;14163;-26.142;27.992;2024-03-02T01:19:38;13.23;;;11.80;;
26478;SDS011;14163;-26.142;27.992;2024-03-02T01:22:09;90.17;;;66.67;;
26478;SDS011;14163;-26.142;27.992;2024-03-02T01:24:38;72.27;;;55.30;;
26478;SDS011;14163;-26.142;27.992;2024-03-02T01:27:07;112.37;;;88.27;;
26478;SDS011;14163;-26.142;27.992;2024-03-02T01:29:38;21.63;;;18.40;;
26478;SDS011;14163;-26.142;27.992;2024-03-02T01:32:09;13.20;;;12.00;;
26478;SDS011;14163;-26.142;27.992;2024-03-02T01:34:38;13.60;;;12.20;;
26478;SDS011;14163;-26.142;27.992;2024-03-02T01:37:07;15.33;;;11.67;;
26478;SDS011;14163;-26.142;27.992;2024-03-02T01:39:37;12.17;;;10.97;;
26478;SDS011;14163;-26.142;27.992;2024-03-02T01:42:06;14.20;;;12.80;;
26478;SDS011;14163;-26.142;27.992;2024-03-02T01:44:36;13.30;;;12.00;;
26478;SDS011;14163;-26.142;27.992;2024-03-02T01:47:05;13.23;;;11.10;;
26478;SDS011;14163;-26.142;27.992;2024-03-02T01:49:36;12.40;;;11.20;;
26478;SDS011;14163;-26.142;27.992;2024-03-02T01:52:06;12.20;;;11.00;;
26478;SDS011;14163;-26.142;27.992;2024-03-02T01:54:36;12.50;;;11.30;;
26478;SDS011;14163;-26.142;27.992;2024-03-02T01:57:06;12.63;;;11.33;;
26478;SDS011;14163;-26.142;27.992;2024-03-02T01:59:35;13.40;;;12.10;;
26478;SDS011;14163;-26.142;27.992;2024-03-02T02:02:04;15.90;;;12.40;;
26478;SDS011;14163;-26.142;27.992;2024-03-02T02:04:33;12.83;;;11.50;;
26478;SDS011;14163;-26.142;27.992;2024-03-02T02:07:04;16.60;;;12.20;;
26478;SDS011;14163;-26.142;27.992;2024-03-02T02:09:34;15.07;;;11.60;;
26478;SDS011;14163;-26.142;27.992;2024-03-02T02:12:03;15.57;;;12.70;;
26478;SDS011;14163;-26.142;27.992;2024-03-02T02:14:34;17.37;;;12.13;;
26478;SDS011;14163;-26.142;27.992;2024-03-02T02:17:05;15.63;;;11.60;;
26478;SDS011;14163;-26.142;27.992;2024-03-02T02:19:36;14.70;;;12.27;;
26478;SDS011;14163;-26.142;27.992;2024-03-02T02:22:07;14.13;;;12.60;;
26478;SDS011;14163;-26.142;27.992;2024-03-02T02:24:36;12.83;;;11.37;;
26478;SDS011;14163;-26.142;27.992;2024-03-02T02:27:08;12.83;;;10.97;;
26478;SDS011;14163;-26.142;27.992;2024-03-02T02:29:40;11.67;;;10.37;;
26478;SDS011;14163;-26.142;27.992;2024-03-02T02:32:09;12.20;;;10.60;;
26478;SDS011;14163;-26.142;27.992;2024-03-02T02:34:38;13.30;;;11.00;;
26478;SDS011;14163;-26.142;27.992;2024-03-02T02:37:09;11.50;;;10.30;;
26478;SDS011;14163;-26.142;27.992;2024-03-02T02:39:38;14.70;;;9.90;;
26478;SDS011;14163;-26.142;27.992;2024-03-02T02:42:07;10.97;;;9.87;;
26478;SDS011;14163;-26.142;27.992;2024-03-02T02:44:36;11.73;;;10.30;;
26478;SDS011;14163;-26.142;27.992;2024-03-02T02:47:05;11.63;;;10.40;;
26478;SDS011;14163;-26.142;27.992;2024-03-02T02:49:35;13.07;;;9.90;;
26478;SDS011;14163;-26.142;27.992;2024-03-02T02:52:04;11.17;;;10.07;;
26478;SDS011;14163;-26.142;27.992;2024-03-02T02:54:36;11.53;;;10.33;;
26478;SDS011;14163;-26.142;27.992;2024-03-02T02:57:06;10.50;;;9.53;;
26478;SDS011;14163;-26.142;27.992;2024-03-02T02:59:35;11.57;;;10.47;;
26478;SDS011;14163;-26.142;27.992;2024-03-02T03:02:04;12.03;;;10.77;;
26478;SDS011;14163;-26.142;27.992;2024-03-02T03:04:33;12.37;;;11.17;;
26478;SDS011;14163;-26.142;27.992;2024-03-02T03:07:03;12.00;;;10.77;;
26478;SDS011;14163;-26.142;27.992;2024-03-02T03:09:32;17.00;;;11.70;;
26478;SDS011;14163;-26.142;27.992;2024-03-02T03:12:05;11.63;;;9.50;;
26478;SDS011;14163;-26.142;27.992;2024-03-02T03:14:34;11.80;;;9.90;;
26478;SDS011;14163;-26.142;27.992;2024-03-02T03:17:03;13.20;;;10.50;;
26478;SDS011;14163;-26.142;27.992;2024-03-02T03:19:33;12.60;;;10.67;;
26478;SDS011;14163;-26.142;27.992;2024-03-02T03:22:03;11.73;;;9.90;;
26478;SDS011;14163;-26.142;27.992;2024-03-02T03:24:32;11.00;;;9.87;;
26478;SDS011;14163;-26.142;27.992;2024-03-02T03:27:03;12.47;;;10.40;;
26478;SDS011;14163;-26.142;27.992;2024-03-02T03:29:32;10.60;;;9.50;;
26478;SDS011;14163;-26.142;27.992;2024-03-02T03:32:01;10.63;;;9.63;;
26478;SDS011;14163;-26.142;27.992;2024-03-02T03:34:32;11.70;;;9.47;;
26478;SDS011;14163;-26.142;27.992;2024-03-02T03:37:01;9.53;;;8.60;;
26478;SDS011;14163;-26.142;27.992;2024-03-02T03:39:31;10.10;;;9.00;;
26478;SDS011;14163;-26.142;27.992;2024-03-02T03:42:03;10.30;;;9.30;;
26478;SDS011;14163;-26.142;27.992;2024-03-02T03:44:33;9.13;;;8.07;;
26478;SDS011;14163;-26.142;27.992;2024-03-02T03:47:02;9.40;;;8.20;;
26478;SDS011;14163;-26.142;27.992;2024-03-02T03:49:31;14.50;;;9.40;;
26478;SDS011;14163;-26.142;27.992;2024-03-02T03:52:00;13.23;;;8.90;;
26478;SDS011;14163;-26.142;27.992;2024-03-02T03:54:29;10.80;;;9.17;;
26478;SDS011;14163;-26.142;27.992;2024-03-02T03:57:00;9.97;;;8.97;;
26478;SDS011;14163;-26.142;27.992;2024-03-02T03:59:29;9.80;;;8.80;;
26478;SDS011;14163;-26.142;27.992;2024-03-02T04:01:58;11.10;;;8.60;;
26478;SDS011;14163;-26.142;27.992;2024-03-02T04:04:28;10.27;;;9.17;;
26478;SDS011;14163;-26.142;27.992;2024-03-02T04:06:57;12.57;;;9.70;;
26478;SDS011;14163;-26.142;27.992;2024-03-02T04:09:26;9.80;;;8.03;;
26478;SDS011;14163;-26.142;27.992;2024-03-02T04:11:55;11.07;;;9.93;;
26478;SDS011;14163;-26.142;27.992;2024-03-02T04:14:26;12.83;;;9.43;;
26478;SDS011;14163;-26.142;27.992;2024-03-02T04:16:55;8.77;;;7.97;;
26478;SDS011;14163;-26.142;27.992;2024-03-02T04:19:24;11.10;;;8.93;;
26478;SDS011;14163;-26.142;27.992;2024-03-02T04:21:53;11.33;;;8.40;;
26478;SDS011;14163;-26.142;27.992;2024-03-02T04:24:23;9.00;;;8.20;;
26478;SDS011;14163;-26.142;27.992;2024-03-02T04:26:52;10.93;;;8.53;;
26478;SDS011;14163;-26.142;27.992;2024-03-02T04:29:21;9.87;;;8.97;;
26478;SDS011;14163;-26.142;27.992;2024-03-02T04:31:52;10.67;;;9.50;;
26478;SDS011;14163;-26.142;27.992;2024-03-02T04:34:21;10.53;;;9.40;;
26478;SDS011;14163;-26.142;27.992;2024-03-02T04:36:50;10.67;;;9.00;;
26478;SDS011;14163;-26.142;27.992;2024-03-02T04:39:19;11.73;;;8.20;;
26478;SDS011;14163;-26.142;27.992;2024-03-02T04:41:48;11.07;;;9.60;;
26478;SDS011;14163;-26.142;27.992;2024-03-02T04:44:18;13.20;;;11.80;;
26478;SDS011;14163;-26.142;27.992;2024-03-02T04:46:47;30.73;;;23.77;;
26478;SDS011;14163;-26.142;27.992;2024-03-02T04:49:17;16.93;;;11.90;;
26478;SDS011;14163;-26.142;27.992;2024-03-02T04:51:46;10.60;;;9.47;;
26478;SDS011;14163;-26.142;27.992;2024-03-02T04:54:16;12.27;;;9.00;;
26478;SDS011;14163;-26.142;27.992;2024-03-02T04:56:45;11.10;;;9.23;;
26478;SDS011;14163;-26.142;27.992;2024-03-02T04:59:16;11.73;;;9.50;;
26478;SDS011;14163;-26.142;27.992;2024-03-02T05:01:46;12.80;;;10.20;;
26478;SDS011;14163;-26.142;27.992;2024-03-02T05:04:15;12.63;;;10.97;;
26478;SDS011;14163;-26.142;27.992;2024-03-02T05:06:46;13.73;;;10.23;;
26478;SDS011;14163;-26.142;27.992;2024-03-02T05:09:18;11.57;;;9.83;;
26478;SDS011;14163;-26.142;27.992;2024-03-02T05:11:47;13.73;;;9.87;;
26478;SDS011;14163;-26.142;27.992;2024-03-02T05:14:36;12.43;;;9.50;;
26478;SDS011;14163;-26.142;27.992;2024-03-02T05:17:05;11.30;;;10.30;;
26478;SDS011;14163;-26.142;27.992;2024-03-02T05:19:36;17.53;;;10.43;;
26478;SDS011;14163;-26.142;27.992;2024-03-02T05:22:05;11.20;;;9.70;;
26478;SDS011;14163;-26.142;27.992;2024-03-02T05:24:34;18.23;;;12.80;;
26478;SDS011;14163;-26.142;27.992;2024-03-02T05:27:04;9.87;;;8.87;;
26478;SDS011;14163;-26.142;27.992;2024-03-02T05:29:33;10.70;;;9.60;;
26478;SDS011;14163;-26.142;27.992;2024-03-02T05:32:02;16.50;;;11.13;;
26478;SDS011;14163;-26.142;27.992;2024-03-02T05:34:32;11.40;;;10.23;;
26478;SDS011;14163;-26.142;27.992;2024-03-02T05:37:03;13.17;;;11.50;;
26478;SDS011;14163;-26.142;27.992;2024-03-02T05:39:32;12.47;;;9.60;;
26478;SDS011;14163;-26.142;27.992;2024-03-02T05:42:01;12.00;;;10.37;;
26478;SDS011;14163;-26.142;27.992;2024-03-02T05:44:30;13.37;;;11.17;;
26478;SDS011;14163;-26.142;27.992;2024-03-02T05:46:59;15.03;;;11.50;;
26478;SDS011;14163;-26.142;27.992;2024-03-02T05:49:28;12.67;;;11.33;;
26478;SDS011;14163;-26.142;27.992;2024-03-02T05:51:58;12.40;;;11.10;;
26478;SDS011;14163;-26.142;27.992;2024-03-02T05:54:28;15.17;;;12.60;;
26478;SDS011;14163;-26.142;27.992;2024-03-02T05:56:58;17.60;;;13.33;;
26478;SDS011;14163;-26.142;27.992;2024-03-02T05:59:42;16.37;;;12.07;;
26478;SDS011;14163;-26.142;27.992;2024-03-02T06:02:11;19.70;;;12.70;;
26478;SDS011;14163;-26.142;27.992;2024-03-02T06:04:40;18.70;;;13.03;;
26478;SDS011;14163;-26.142;27.992;2024-03-02T06:07:08;14.67;;;12.33;;
26478;SDS011;14163;-26.142;27.992;2024-03-02T06:09:40;15.20;;;13.47;;
26478;SDS011;14163;-26.142;27.992;2024-03-02T06:12:10;15.20;;;13.60;;
26478;SDS011;14163;-26.142;27.992;2024-03-02T06:14:39;16.73;;;14.30;;
26478;SDS011;14163;-26.142;27.992;2024-03-02T06:17:08;23.17;;;14.67;;
26478;SDS011;14163;-26.142;27.992;2024-03-02T06:19:37;22.43;;;13.67;;
26478;SDS011;14163;-26.142;27.992;2024-03-02T06:22:07;19.57;;;14.33;;
26478;SDS011;14163;-26.142;27.992;2024-03-02T06:24:36;18.13;;;14.77;;
26478;SDS011;14163;-26.142;27.992;2024-03-02T06:27:07;20.50;;;15.87;;
26478;SDS011;14163;-26.142;27.992;2024-03-02T06:29:36;19.77;;;15.40;;
26478;SDS011;14163;-26.142;27.992;2024-03-02T06:32:06;21.03;;;14.60;;
26478;SDS011;14163;-26.142;27.992;2024-03-02T06:34:35;20.97;;;14.93;;
26478;SDS011;14163;-26.142;27.992;2024-03-02T06:37:04;19.17;;;15.10;;
26478;SDS011;14163;-26.142;27.992;2024-03-02T06:39:33;18.40;;;14.77;;
26478;SDS011;14163;-26.142;27.992;2024-03-02T06:42:04;20.07;;;14.00;;
26478;SDS011;14163;-26.142;27.992;2024-03-02T06:44:34;17.33;;;14.10;;
26478;SDS011;14163;-26.142;27.992;2024-03-02T06:47:03;20.70;;;14.80;;
26478;SDS011;14163;-26.142;27.992;2024-03-02T06:49:32;15.00;;;13.50;;
26478;SDS011;14163;-26.142;27.992;2024-03-02T06:52:01;15.60;;;13.80;;
26478;SDS011;14163;-26.142;27.992;2024-03-02T06:54:31;14.87;;;13.37;;
26478;SDS011;14163;-26.142;27.992;2024-03-02T06:57:00;14.73;;;13.10;;
26478;SDS011;14163;-26.142;27.992;2024-03-02T06:59:31;14.80;;;12.90;;
26478;SDS011;14163;-26.142;27.992;2024-03-02T07:02:00;15.97;;;13.73;;
26478;SDS011;14163;-26.142;27.992;2024-03-02T07:04:29;21.33;;;13.40;;
26478;SDS011;14163;-26.142;27.992;2024-03-02T07:06:58;14.30;;;12.70;;
26478;SDS011;14163;-26.142;27.992;2024-03-02T07:09:28;15.67;;;14.13;;
26478;SDS011;14163;-26.142;27.992;2024-03-02T07:11:57;15.83;;;14.43;;
26478;SDS011;14163;-26.142;27.992;2024-03-02T07:14:26;18.80;;;13.43;;
26478;SDS011;14163;-26.142;27.992;2024-03-02T07:17:10;17.53;;;14.00;;
26478;SDS011;14163;-26.142;27.992;2024-03-02T07:19:39;14.47;;;12.97;;
26478;SDS011;14163;-26.142;27.992;2024-03-02T07:22:08;17.70;;;13.67;;
26478;SDS011;14163;-26.142;27.992;2024-03-02T07:24:40;14.83;;;13.27;;
26478;SDS011;14163;-26.142;27.992;2024-03-02T07:27:10;16.30;;;14.07;;
26478;SDS011;14163;-26.142;27.992;2024-03-02T07:29:39;15.90;;;13.30;;
26478;SDS011;14163;-26.142;27.992;2024-03-02T07:32:10;17.07;;;15.27;;
26478;SDS011;14163;-26.142;27.992;2024-03-02T07:34:39;16.13;;;14.53;;
26478;SDS011;14163;-26.142;27.992;2024-03-02T07:37:08;14.27;;;12.90;;
26478;SDS011;14163;-26.142;27.992;2024-03-02T07:39:37;14.63;;;13.13;;
26478;SDS011;14163;-26.142;27.992;2024-03-02T07:42:06;18.30;;;14.60;;
26478;SDS011;14163;-26.142;27.992;2024-03-02T07:44:35;18.83;;;13.50;;
26478;SDS011;14163;-26.142;27.992;2024-03-02T07:47:05;17.03;;;15.07;;
26478;SDS011;14163;-26.142;27.992;2024-03-02T07:49:36;19.17;;;14.30;;
26478;SDS011;14163;-26.142;27.992;2024-03-02T07:52:06;16.03;;;13.83;;
26478;SDS011;14163;-26.142;27.992;2024-03-02T07:54:35;15.53;;;13.13;;
26478;SDS011;14163;-26.142;27.992;2024-03-02T07:57:04;14.77;;;13.33;;
26478;SDS011;14163;-26.142;27.992;2024-03-02T07:59:34;13.77;;;12.17;;
26478;SDS011;14163;-26.142;27.992;2024-03-02T08:02:03;18.20;;;13.93;;
26478;SDS011;14163;-26.142;27.992;2024-03-02T08:04:32;16.10;;;13.30;;
26478;SDS011;14163;-26.142;27.992;2024-03-02T08:07:03;16.87;;;13.10;;
26478;SDS011;14163;-26.142;27.992;2024-03-02T08:09:35;13.03;;;11.67;;
26478;SDS011;14163;-26.142;27.992;2024-03-02T08:12:04;14.80;;;11.77;;
26478;SDS011;14163;-26.142;27.992;2024-03-02T08:14:34;14.30;;;11.50;;
26478;SDS011;14163;-26.142;27.992;2024-03-02T08:17:03;13.23;;;11.00;;
26478;SDS011;14163;-26.142;27.992;2024-03-02T08:19:36;12.80;;;11.37;;
26478;SDS011;14163;-26.142;27.992;2024-03-02T08:22:06;15.10;;;12.10;;
26478;SDS011;14163;-26.142;27.992;2024-03-02T08:24:36;11.07;;;9.97;;
26478;SDS011;14163;-26.142;27.992;2024-03-02T08:27:05;11.83;;;10.60;;
26478;SDS011;14163;-26.142;27.992;2024-03-02T08:29:35;12.93;;;11.63;;
26478;SDS011;14163;-26.142;27.992;2024-03-02T08:32:04;12.60;;;11.30;;
26478;SDS011;14163;-26.142;27.992;2024-03-02T08:34:34;13.67;;;11.03;;
26478;SDS011;14163;-26.142;27.992;2024-03-02T08:37:03;13.53;;;11.63;;
26478;SDS011;14163;-26.142;27.992;2024-03-02T08:39:34;12.37;;;11.17;;
26478;SDS011;14163;-26.142;27.992;2024-03-02T08:42:03;11.87;;;10.67;;
26478;SDS011;14163;-26.142;27.992;2024-03-02T08:44:32;11.50;;;10.50;;
26478;SDS011;14163;-26.142;27.992;2024-03-02T08:47:01;11.70;;;10.50;;
26478;SDS011;14163;-26.142;27.992;2024-03-02T08:49:31;11.83;;;10.07;;
26478;SDS011;14163;-26.142;27.992;2024-03-02T08:52:00;11.27;;;10.20;;
26478;SDS011;14163;-26.142;27.992;2024-03-02T08:54:31;14.03;;;9.17;;
26478;SDS011;14163;-26.142;27.992;2024-03-02T08:57:01;13.63;;;10.20;;
26478;SDS011;14163;-26.142;27.992;2024-03-02T08:59:30;10.90;;;9.90;;
26478;SDS011;14163;-26.142;27.992;2024-03-02T09:01:59;12.60;;;11.47;;
26478;SDS011;14163;-26.142;27.992;2024-03-02T09:04:28;11.37;;;10.27;;
26478;SDS011;14163;-26.142;27.992;2024-03-02T09:06:58;13.17;;;10.23;;
26478;SDS011;14163;-26.142;27.992;2024-03-02T09:09:27;13.97;;;10.27;;
26478;SDS011;14163;-26.142;27.992;2024-03-02T09:11:59;11.10;;;9.83;;
26478;SDS011;14163;-26.142;27.992;2024-03-02T09:14:28;11.03;;;10.07;;
26478;SDS011;14163;-26.142;27.992;2024-03-02T09:16:57;12.70;;;11.40;;
26478;SDS011;14163;-26.142;27.992;2024-03-02T09:19:26;12.83;;;9.80;;
26478;SDS011;14163;-26.142;27.992;2024-03-02T09:21:55;12.03;;;10.83;;
26478;SDS011;14163;-26.142;27.992;2024-03-02T09:24:25;16.90;;;12.00;;
26478;SDS011;14163;-26.142;27.992;2024-03-02T09:26:54;12.03;;;10.93;;
26478;SDS011;14163;-26.142;27.992;2024-03-02T09:29:24;11.40;;;10.30;;
26478;SDS011;14163;-26.142;27.992;2024-03-02T09:31:54;10.50;;;9.70;;
26478;SDS011;14163;-26.142;27.992;2024-03-02T09:34:23;10.73;;;9.80;;
26478;SDS011;14163;-26.142;27.992;2024-03-02T09:36:52;12.00;;;10.80;;
26478;SDS011;14163;-26.142;27.992;2024-03-02T09:39:21;11.10;;;10.00;;
26478;SDS011;14163;-26.142;27.992;2024-03-02T09:41:51;14.27;;;12.77;;
26478;SDS011;14163;-26.142;27.992;2024-03-02T09:44:21;11.27;;;9.13;;
26478;SDS011;14163;-26.142;27.992;2024-03-02T09:46:52;11.03;;;9.93;;
26478;SDS011;14163;-26.142;27.992;2024-03-02T09:49:21;10.80;;;9.67;;
26478;SDS011;14163;-26.142;27.992;2024-03-02T09:51:50;13.90;;;10.03;;
26478;SDS011;14163;-26.142;27.992;2024-03-02T09:54:19;11.30;;;8.77;;
26478;SDS011;14163;-26.142;27.992;2024-03-02T09:56:49;13.30;;;9.60;;
26478;SDS011;14163;-26.142;27.992;2024-03-02T09:59:19;11.30;;;8.90;;
26478;SDS011;14163;-26.142;27.992;2024-03-02T10:01:59;10.97;;;9.97;;
26478;SDS011;14163;-26.142;27.992;2024-03-02T10:04:29;11.30;;;9.37;;
26478;SDS011;14163;-26.142;27.992;2024-03-02T10:09:46;9.93;;;8.93;;
26478;SDS011;14163;-26.142;27.992;2024-03-02T10:12:17;10.53;;;9.03;;
26478;SDS011;14163;-26.142;27.992;2024-03-02T10:14:48;11.47;;;9.07;;
26478;SDS011;14163;-26.142;27.992;2024-03-02T10:17:20;9.83;;;9.03;;
26478;SDS011;14163;-26.142;27.992;2024-03-02T10:19:49;11.63;;;10.40;;
26478;SDS011;14163;-26.142;27.992;2024-03-02T10:22:18;10.80;;;9.23;;
26478;SDS011;14163;-26.142;27.992;2024-03-02T10:24:52;10.97;;;9.17;;
26478;SDS011;14163;-26.142;27.992;2024-03-02T10:27:23;11.33;;;9.53;;
26478;SDS011;14163;-26.142;27.992;2024-03-02T10:29:55;9.70;;;8.70;;
26478;SDS011;14163;-26.142;27.992;2024-03-02T10:32:26;10.30;;;9.30;;
26478;SDS011;14163;-26.142;27.992;2024-03-02T10:34:55;9.80;;;8.90;;
26478;SDS011;14163;-26.142;27.992;2024-03-02T10:37:25;10.47;;;9.53;;
26478;SDS011;14163;-26.142;27.992;2024-03-02T10:39:54;10.50;;;9.50;;
26478;SDS011;14163;-26.142;27.992;2024-03-02T10:42:23;9.13;;;8.30;;
26478;SDS011;14163;-26.142;27.992;2024-03-02T10:44:53;10.27;;;9.30;;
26478;SDS011;14163;-26.142;27.992;2024-03-02T10:47:23;10.97;;;9.87;;
26478;SDS011;14163;-26.142;27.992;2024-03-02T10:49:58;10.23;;;8.90;;
26478;SDS011;14163;-26.142;27.992;2024-03-02T10:52:29;9.20;;;8.30;;
26478;SDS011;14163;-26.142;27.992;2024-03-02T10:54:58;11.33;;;9.53;;
26478;SDS011;14163;-26.142;27.992;2024-03-02T10:57:30;10.33;;;9.33;;
26478;SDS011;14163;-26.142;27.992;2024-03-02T11:00:08;9.73;;;8.83;;
26478;SDS011;14163;-26.142;27.992;2024-03-02T11:02:46;9.93;;;8.93;;
26478;SDS011;14163;-26.142;27.992;2024-03-02T11:05:22;9.37;;;8.67;;
26478;SDS011;14163;-26.142;27.992;2024-03-02T11:07:57;11.00;;;9.80;;
26478;SDS011;14163;-26.142;27.992;2024-03-02T11:10:32;9.37;;;8.47;;
26478;SDS011;14163;-26.142;27.992;2024-03-02T11:13:05;10.13;;;9.13;;
26478;SDS011;14163;-26.142;27.992;2024-03-02T11:15:36;10.33;;;8.93;;
26478;SDS011;14163;-26.142;27.992;2024-03-02T11:18:12;9.63;;;8.83;;
26478;SDS011;14163;-26.142;27.992;2024-03-02T11:20:42;8.43;;;7.83;;
26478;SDS011;14163;-26.142;27.992;2024-03-02T11:23:12;11.03;;;9.40;;
26478;SDS011;14163;-26.142;27.992;2024-03-02T11:25:41;11.87;;;9.13;;
26478;SDS011;14163;-26.142;27.992;2024-03-02T11:28:10;10.70;;;9.67;;
26478;SDS011;14163;-26.142;27.992;2024-03-02T11:33:25;9.80;;;8.83;;
26478;SDS011;14163;-26.142;27.992;2024-03-02T11:35:57;9.40;;;8.60;;
26478;SDS011;14163;-26.142;27.992;2024-03-02T11:38:32;9.50;;;8.60;;
26478;SDS011;14163;-26.142;27.992;2024-03-02T11:41:02;8.07;;;7.47;;
26478;SDS011;14163;-26.142;27.992;2024-03-02T11:43:37;8.50;;;7.70;;
26478;SDS011;14163;-26.142;27.992;2024-03-02T11:46:06;8.87;;;7.97;;
26478;SDS011;14163;-26.142;27.992;2024-03-02T11:48:37;8.53;;;7.83;;
26478;SDS011;14163;-26.142;27.992;2024-03-02T11:51:07;7.33;;;6.73;;
26478;SDS011;14163;-26.142;27.992;2024-03-02T11:53:37;8.57;;;7.87;;
26478;SDS011;14163;-26.142;27.992;2024-03-02T11:56:09;8.97;;;8.07;;
26478;SDS011;14163;-26.142;27.992;2024-03-02T11:58:39;8.00;;;7.20;;
26478;SDS011;14163;-26.142;27.992;2024-03-02T12:01:10;6.73;;;6.33;;
26478;SDS011;14163;-26.142;27.992;2024-03-02T12:03:42;7.77;;;7.03;;
26478;SDS011;14163;-26.142;27.992;2024-03-02T12:06:11;7.72;;;7.15;;
26478;SDS011;14163;-26.142;27.992;2024-03-02T12:08:40;7.40;;;6.73;;
26478;SDS011;14163;-26.142;27.992;2024-03-02T12:11:13;7.80;;;7.20;;
26478;SDS011;14163;-26.142;27.992;2024-03-02T12:13:51;8.57;;;7.70;;
26478;SDS011;14163;-26.142;27.992;2024-03-02T12:16:23;9.40;;;8.60;;
26478;SDS011;14163;-26.142;27.992;2024-03-02T12:18:54;8.20;;;7.60;;
26478;SDS011;14163;-26.142;27.992;2024-03-02T12:21:23;8.57;;;7.87;;
26478;SDS011;14163;-26.142;27.992;2024-03-02T12:23:53;7.63;;;7.03;;
26478;SDS011;14163;-26.142;27.992;2024-03-02T12:26:22;7.50;;;6.00;;
26478;SDS011;14163;-26.142;27.992;2024-03-02T12:28:51;8.33;;;7.50;;
26478;SDS011;14163;-26.142;27.992;2024-03-02T12:31:20;9.53;;;8.53;;
26478;SDS011;14163;-26.142;27.992;2024-03-02T12:33:49;8.23;;;7.57;;
26478;SDS011;14163;-26.142;27.992;2024-03-02T12:36:20;10.50;;;7.30;;
26478;SDS011;14163;-26.142;27.992;2024-03-02T12:38:52;8.80;;;7.90;;
26478;SDS011;14163;-26.142;27.992;2024-03-02T12:41:22;8.73;;;8.07;;
26478;SDS011;14163;-26.142;27.992;2024-03-02T12:43:51;10.10;;;9.20;;
26478;SDS011;14163;-26.142;27.992;2024-03-02T12:46:21;9.57;;;8.77;;
26478;SDS011;14163;-26.142;27.992;2024-03-02T12:48:50;9.10;;;8.30;;
26478;SDS011;14163;-26.142;27.992;2024-03-02T12:51:22;8.80;;;8.03;;
26478;SDS011;14163;-26.142;27.992;2024-03-02T12:53:53;7.67;;;7.10;;
26478;SDS011;14163;-26.142;27.992;2024-03-02T12:56:22;9.00;;;8.30;;
26478;SDS011;14163;-26.142;27.992;2024-03-02T12:58:53;8.33;;;7.73;;
26478;SDS011;14163;-26.142;27.992;2024-03-02T13:01:22;8.73;;;7.93;;
26478;SDS011;14163;-26.142;27.992;2024-03-02T13:03:52;8.70;;;7.90;;
26478;SDS011;14163;-26.142;27.992;2024-03-02T13:06:25;8.33;;;7.77;;
26478;SDS011;14163;-26.142;27.992;2024-03-02T13:08:55;8.87;;;8.07;;
26478;SDS011;14163;-26.142;27.992;2024-03-02T13:11:24;7.63;;;7.10;;
26478;SDS011;14163;-26.142;27.992;2024-03-02T13:13:53;8.60;;;7.80;;
26478;SDS011;14163;-26.142;27.992;2024-03-02T13:16:23;7.60;;;7.00;;
26478;SDS011;14163;-26.142;27.992;2024-03-02T13:18:52;8.43;;;7.60;;
26478;SDS011;14163;-26.142;27.992;2024-03-02T13:21:21;8.40;;;7.80;;
26478;SDS011;14163;-26.142;27.992;2024-03-02T13:23:51;8.77;;;8.03;;
26478;SDS011;14163;-26.142;27.992;2024-03-02T13:26:21;8.30;;;7.50;;
26478;SDS011;14163;-26.142;27.992;2024-03-02T13:28:50;8.30;;;7.70;;
26478;SDS011;14163;-26.142;27.992;2024-03-02T13:31:19;8.53;;;7.83;;
26478;SDS011;14163;-26.142;27.992;2024-03-02T13:33:48;8.30;;;7.60;;
26478;SDS011;14163;-26.142;27.992;2024-03-02T13:36:17;8.10;;;7.40;;
26478;SDS011;14163;-26.142;27.992;2024-03-02T13:38:46;7.87;;;7.27;;
26478;SDS011;14163;-26.142;27.992;2024-03-02T13:41:17;7.47;;;6.60;;
26478;SDS011;14163;-26.142;27.992;2024-03-02T13:43:46;8.03;;;7.40;;
26478;SDS011;14163;-26.142;27.992;2024-03-02T13:46:15;7.87;;;7.17;;
26478;SDS011;14163;-26.142;27.992;2024-03-02T13:48:45;8.87;;;8.17;;
26478;SDS011;14163;-26.142;27.992;2024-03-02T13:51:14;9.43;;;7.93;;
26478;SDS011;14163;-26.142;27.992;2024-03-02T13:53:43;9.57;;;8.43;;
26478;SDS011;14163;-26.142;27.992;2024-03-02T13:56:12;8.90;;;8.03;;
26478;SDS011;14163;-26.142;27.992;2024-03-02T13:58:44;9.20;;;8.20;;
26478;SDS011;14163;-26.142;27.992;2024-03-02T14:01:13;8.97;;;8.17;;
26478;SDS011;14163;-26.142;27.992;2024-03-02T14:03:42;8.67;;;7.90;;
26478;SDS011;14163;-26.142;27.992;2024-03-02T14:06:12;11.90;;;9.10;;
26478;SDS011;14163;-26.142;27.992;2024-03-02T14:08:41;15.80;;;8.80;;
26478;SDS011;14163;-26.142;27.992;2024-03-02T14:11:11;19.57;;;11.40;;
26478;SDS011;14163;-26.142;27.992;2024-03-02T14:13:44;19.37;;;13.00;;
26478;SDS011;14163;-26.142;27.992;2024-03-02T14:16:19;20.43;;;13.77;;
26478;SDS011;14163;-26.142;27.992;2024-03-02T14:18:48;15.47;;;12.23;;
26478;SDS011;14163;-26.142;27.992;2024-03-02T14:21:17;18.87;;;12.60;;
26478;SDS011;14163;-26.142;27.992;2024-03-02T14:23:46;17.73;;;12.40;;
26478;SDS011;14163;-26.142;27.992;2024-03-02T14:26:15;19.13;;;11.47;;
26478;SDS011;14163;-26.142;27.992;2024-03-02T14:28:47;13.97;;;12.27;;